createdAt,value
2023-06-04T00:03:45.518Z,9.70
2023-06-04T00:09:48.213Z,9.60
2023-06-04T00:15:50.362Z,9.40
2023-06-04T00:21:52.313Z,9.20
2023-06-04T00:27:54.278Z,9.10
2023-06-04T00:33:56.244Z,8.90
2023-06-04T00:39:58.285Z,8.90
2023-06-04T00:46:00.743Z,8.80
2023-06-04T00:52:03.283Z,8.80
2023-06-04T00:58:05.282Z,8.70
2023-06-04T01:04:13.413Z,8.60
2023-06-04T01:10:16.521Z,8.50
2023-06-04T01:16:18.597Z,8.50
2023-06-04T01:22:52.505Z,8.50
2023-06-04T01:28:57.212Z,8.40
2023-06-04T01:34:59.834Z,8.40
2023-06-04T01:41:02.764Z,8.30
2023-06-04T01:47:05.069Z,8.30
2023-06-04T01:53:07.340Z,8.10
2023-06-04T01:59:12.953Z,8.10
2023-06-04T02:05:15.801Z,7.90
2023-06-04T02:11:17.993Z,7.80
2023-06-04T02:17:19.927Z,7.70
2023-06-04T02:23:22.039Z,7.70
2023-06-04T02:29:24.101Z,7.50
2023-06-04T02:35:26.132Z,7.50
2023-06-04T02:41:28.096Z,7.40
2023-06-04T02:47:30.053Z,7.40
2023-06-04T02:53:32.027Z,7.40
2023-06-04T02:59:33.968Z,7.50
2023-06-04T03:05:37.887Z,7.40
2023-06-04T03:11:40.503Z,7.10
2023-06-04T03:17:43.566Z,7.10
2023-06-04T03:23:45.827Z,7.00
2023-06-04T03:29:50.666Z,7.00
2023-06-04T03:35:53.692Z,7.00
2023-06-04T03:41:56.269Z,6.90
2023-06-04T03:47:58.302Z,7.00
2023-06-04T03:54:07.653Z,7.10
2023-06-04T04:00:24.951Z,7.10
2023-06-04T04:06:27.114Z,7.30
2023-06-04T04:12:29.202Z,7.40
2023-06-04T04:18:35.240Z,7.60
2023-06-04T04:24:38.160Z,7.70
2023-06-04T04:30:41.621Z,8.10
2023-06-04T04:36:45.195Z,8.40
2023-06-04T04:42:47.319Z,8.70
2023-06-04T04:48:49.282Z,9.00
2023-06-04T04:54:51.832Z,9.20
2023-06-04T05:00:53.776Z,9.50
2023-06-04T05:06:55.776Z,9.80
2023-06-04T05:13:01.689Z,10.20
2023-06-04T05:19:03.897Z,10.50
2023-06-04T05:25:07.427Z,10.80
2023-06-04T05:31:09.815Z,11.10
2023-06-04T05:37:12.668Z,11.40
2023-06-04T05:43:14.811Z,11.60
2023-06-04T05:49:17.994Z,11.80
2023-06-04T05:55:20.904Z,12.20
2023-06-04T06:01:22.873Z,12.50
2023-06-04T06:07:24.834Z,12.90
2023-06-04T06:13:27.010Z,13.30
2023-06-04T06:19:28.963Z,13.60
2023-06-04T06:25:30.937Z,13.70
2023-06-04T06:31:32.999Z,13.90
2023-06-04T06:37:35.049Z,14.30
2023-06-04T06:43:37.095Z,14.60
2023-06-04T06:49:39.110Z,15.10
2023-06-04T06:55:41.186Z,15.50
2023-06-04T07:01:43.198Z,16.10
2023-06-04T07:07:45.161Z,16.50
2023-06-04T07:13:47.247Z,16.80
2023-06-04T07:19:49.247Z,17.20
2023-06-04T07:25:51.422Z,17.30
2023-06-04T07:31:53.506Z,17.80
2023-06-04T07:37:55.538Z,18.30
2023-06-04T07:43:57.523Z,18.60
2023-06-04T07:50:03.196Z,19.10
2023-06-04T07:56:07.286Z,19.50
2023-06-04T08:02:09.675Z,20.10
2023-06-04T08:08:11.622Z,20.60
2023-06-04T08:14:14.167Z,21.00
2023-06-04T08:20:16.699Z,21.50
2023-06-04T08:26:18.720Z,21.90
2023-06-04T08:32:20.650Z,21.70
2023-06-04T08:38:22.920Z,21.90
2023-06-04T08:44:28.440Z,22.20
2023-06-04T08:50:30.832Z,22.70
2023-06-04T08:56:33.986Z,23.10
2023-06-04T09:02:39.816Z,22.90
2023-06-04T09:08:53.755Z,22.80
2023-06-04T09:14:59.398Z,23.10
2023-06-04T09:21:09.711Z,23.00
2023-06-04T09:27:20.357Z,22.90
2023-06-04T09:33:24.680Z,23.70
2023-06-04T09:39:28.072Z,24.30
2023-06-04T09:45:45.400Z,24.70
2023-06-04T09:51:56.557Z,25.20
2023-06-04T09:58:00.238Z,24.90
2023-06-04T10:04:07.721Z,25.40
2023-06-04T10:10:20.019Z,25.80
2023-06-04T10:16:33.410Z,24.90
2023-06-04T10:22:40.570Z,24.70
2023-06-04T10:28:44.045Z,25.80
2023-06-04T10:34:47.515Z,26.30
2023-06-04T10:40:49.546Z,26.00
2023-06-04T10:53:05.025Z,26.40
2023-06-04T10:59:18.649Z,27.10
2023-06-04T11:05:20.903Z,26.00
2023-06-04T11:11:24.008Z,24.90
2023-06-04T11:17:34.258Z,25.50
2023-06-04T11:23:36.276Z,26.20
2023-06-04T11:29:38.423Z,25.80
2023-06-04T11:35:44.319Z,25.70
2023-06-04T11:41:46.741Z,25.90
2023-06-04T11:47:50.586Z,25.50
2023-06-04T11:53:52.926Z,25.70
2023-06-04T11:59:55.914Z,25.50
2023-06-04T12:05:57.925Z,26.10
2023-06-04T12:12:01.465Z,27.30
2023-06-04T12:18:07.214Z,28.50
2023-06-04T12:24:11.750Z,29.40
2023-06-04T12:30:13.885Z,29.40
2023-06-04T12:36:15.848Z,30.10
2023-06-04T12:42:20.278Z,29.20
2023-06-04T12:48:22.322Z,29.50
2023-06-04T12:54:24.410Z,29.10
2023-06-04T13:00:26.487Z,29.20
2023-06-04T13:06:28.468Z,29.80
2023-06-04T13:12:31.631Z,29.30
2023-06-04T13:18:33.828Z,29.20
2023-06-04T13:24:35.983Z,29.30
2023-06-04T13:30:40.503Z,29.90
2023-06-04T13:36:42.868Z,30.60
2023-06-04T13:42:44.928Z,30.10
2023-06-04T13:48:46.942Z,30.00
2023-06-04T13:54:48.853Z,29.40
2023-06-04T14:00:51.215Z,29.10
2023-06-04T14:07:05.019Z,29.70
2023-06-04T14:13:09.986Z,30.10
2023-06-04T14:19:15.890Z,30.30
2023-06-04T14:25:17.855Z,30.70
2023-06-04T14:31:19.994Z,30.60
2023-06-04T14:37:22.144Z,30.60
2023-06-04T14:43:25.164Z,30.70
2023-06-04T14:49:27.126Z,30.50
2023-06-04T14:55:29.108Z,30.50
2023-06-04T15:01:31.282Z,30.50
2023-06-04T15:07:36.595Z,30.60
2023-06-04T15:13:38.837Z,30.50
2023-06-04T15:19:40.827Z,29.70
2023-06-04T15:25:42.805Z,30.40
2023-06-04T15:31:44.819Z,29.50
2023-06-04T15:37:46.941Z,29.30
2023-06-04T15:43:48.921Z,29.00
2023-06-04T15:49:50.867Z,28.20
2023-06-04T15:55:52.890Z,28.00
2023-06-04T16:01:54.831Z,27.70
2023-06-04T16:07:56.771Z,27.10
2023-06-04T16:13:58.739Z,27.50
2023-06-04T16:20:00.774Z,27.40
2023-06-04T16:26:02.798Z,27.40
2023-06-04T16:32:04.886Z,27.80
2023-06-04T16:38:06.818Z,28.00
2023-06-04T16:44:08.788Z,28.20
2023-06-04T16:50:11.734Z,29.10
2023-06-04T16:56:15.157Z,30.30
2023-06-04T17:02:17.398Z,30.60
2023-06-04T17:08:19.520Z,29.90
2023-06-04T17:14:21.487Z,30.00
2023-06-04T17:20:23.426Z,30.50
2023-06-04T17:26:26.773Z,30.50
2023-06-04T17:32:28.849Z,30.40
2023-06-04T17:38:31.112Z,30.70
2023-06-04T17:44:33.056Z,30.40
2023-06-04T17:50:35.085Z,30.50
2023-06-04T17:56:37.118Z,31.20
2023-06-04T18:02:39.126Z,30.50
2023-06-04T18:08:41.121Z,30.00
2023-06-04T18:14:43.702Z,29.80
2023-06-04T18:20:45.705Z,29.60
2023-06-04T18:26:47.638Z,29.00
2023-06-04T18:32:49.855Z,29.00
2023-06-04T18:38:51.833Z,28.20
2023-06-04T18:44:53.784Z,27.50
2023-06-04T18:50:55.736Z,26.10
2023-06-04T18:56:57.716Z,24.40
2023-06-04T19:02:59.762Z,22.90
2023-06-04T19:09:02.349Z,21.60
2023-06-04T19:15:06.988Z,20.50
2023-06-04T19:21:09.113Z,19.50
2023-06-04T19:27:11.134Z,18.70
2023-06-04T19:33:13.555Z,18.10
2023-06-04T19:39:15.886Z,17.60
2023-06-04T19:45:18.134Z,17.20
2023-06-04T19:51:21.990Z,16.80
2023-06-04T19:57:24.311Z,16.50
2023-06-04T20:03:27.536Z,16.30
2023-06-04T20:09:29.665Z,16.10
2023-06-04T20:15:34.318Z,16.00
2023-06-04T20:21:37.850Z,15.70
2023-06-04T20:27:39.803Z,15.50
2023-06-04T20:33:41.833Z,15.40
2023-06-04T20:39:48.537Z,15.30
2023-06-04T20:45:52.296Z,15.10
2023-06-04T20:51:54.285Z,14.90
2023-06-04T20:57:56.227Z,14.70
2023-06-04T21:04:00.973Z,14.60
2023-06-04T21:10:03.851Z,14.60
2023-06-04T21:16:06.043Z,14.40
2023-06-04T21:22:08.073Z,14.30
2023-06-04T21:28:10.121Z,14.30
2023-06-04T21:34:12.104Z,14.40
2023-06-04T21:40:15.149Z,14.30
2023-06-04T21:46:24.637Z,14.30
2023-06-04T21:52:26.800Z,14.40
2023-06-04T21:58:28.862Z,14.50
2023-06-04T22:04:30.748Z,14.50
2023-06-04T22:10:32.698Z,14.20
2023-06-04T22:16:34.687Z,13.70
2023-06-04T22:22:36.720Z,13.40
2023-06-04T22:28:38.979Z,13.20
2023-06-04T22:34:40.910Z,12.90
2023-06-04T22:40:48.078Z,12.60
2023-06-04T22:46:50.132Z,12.40
2023-06-04T22:52:52.734Z,12.20
2023-06-04T22:58:54.707Z,12.00
2023-06-04T23:05:08.839Z,11.80
2023-06-04T23:11:10.890Z,11.70
2023-06-04T23:17:25.877Z,11.60
2023-06-04T23:23:34.435Z,11.50
2023-06-04T23:29:36.925Z,11.30
2023-06-04T23:35:39.386Z,11.20
2023-06-04T23:41:41.478Z,11.00
2023-06-04T23:47:43.397Z,11.00
2023-06-04T23:53:46.928Z,11.00
2023-06-04T23:59:48.950Z,11.10
